Time;durP1;ratioP1;P1;durP2;ratioP2;P2;SDS_P1;SDS_P2;PMS_P1;PMS_P2;Temp;Humidity;BMP_temperature;BMP_pressure;BME280_temperature;BME280_humidity;BME280_pressure;Samples;Min_cycle;Max_cycle;Signal;HPM_P1;HPM_P2
2022/02/02 00:01:44;;;;;;;34.42;9.27;;;;;;;6.78;98.53;100754.22;5018303;28;20546;-90
2022/02/02 00:04:12;;;;;;;30.23;7.43;;;;;;;6.75;98.61;100736.69;5022991;28;20030;-87
2022/02/02 00:06:46;;;;;;;25.90;5.65;;;;;;;6.74;97.95;100745.66;5031014;28;20136;-91
2022/02/02 00:09:16;;;;;;;36.25;7.07;;;;;;;6.69;97.84;100739.91;5014867;28;20111;-89
2022/02/02 00:15:04;;;;;;;28.52;6.20;;;;;;;6.74;97.40;100755.50;5031068;28;20397;-88
2022/02/02 00:17:15;;;;;;;29.50;6.10;;;;;;;6.72;97.91;100754.78;5020891;28;20497;-89
2022/02/02 00:19:58;;;;;;;37.25;6.97;;;;;;;6.68;97.36;100748.06;5013627;28;20037;-90
2022/02/02 00:22:31;;;;;;;33.25;7.22;;;;;;;6.68;98.36;100750.72;5007874;28;20049;-90
2022/02/02 00:27:32;;;;;;;31.52;6.68;;;;;;;6.62;98.27;100762.81;5031020;28;20484;-90
2022/02/02 00:30:01;;;;;;;31.42;8.02;;;;;;;6.62;98.04;100768.13;5013676;28;20041;-89
2022/02/02 00:34:58;;;;;;;30.02;7.55;;;;;;;6.63;98.28;100771.63;5022026;28;20033;-87
2022/02/02 00:37:24;;;;;;;38.38;7.88;;;;;;;6.64;98.98;100778.66;5018230;28;20048;-86
2022/02/02 00:39:49;;;;;;;31.50;8.02;;;;;;;6.66;97.92;100785.53;5011520;28;20136;-89
2022/02/02 00:42:15;;;;;;;28.10;6.55;;;;;;;6.67;98.45;100791.69;4994661;28;20049;-86
2022/02/02 00:44:46;;;;;;;28.85;6.95;;;;;;;6.66;98.91;100774.84;5015633;28;20041;-88
2022/02/02 00:47:19;;;;;;;32.45;7.30;;;;;;;6.63;98.79;100784.97;5011629;28;20041;-89
2022/02/02 00:49:52;;;;;;;28.60;6.55;;;;;;;6.62;98.98;100780.59;5016054;28;20041;-88
2022/02/02 00:52:19;;;;;;;33.33;6.43;;;;;;;6.62;99.13;100767.25;5006989;28;20041;-88
2022/02/02 00:54:47;;;;;;;25.83;5.90;;;;;;;6.59;99.12;100767.53;5010354;28;20057;-87
2022/02/02 00:57:18;;;;;;;20.38;6.07;;;;;;;6.59;100.00;100770.22;4992620;28;20037;-88
2022/02/02 00:59:47;;;;;;;31.42;7.10;;;;;;;6.60;100.00;100783.41;5006462;28;20077;-87
2022/02/02 01:02:13;;;;;;;33.70;6.60;;;;;;;6.57;100.00;100781.03;4994097;28;20045;-88
2022/02/02 01:04:40;;;;;;;33.38;6.45;;;;;;;6.54;100.00;100767.97;4977046;28;20049;-88
2022/02/02 01:28:19;;;;;;;38.75;6.68;;;;;;;6.39;100.00;100788.88;4993552;28;20053;-86
2022/02/02 01:30:46;;;;;;;34.47;7.30;;;;;;;6.37;100.00;100774.00;5009973;28;20038;-88
2022/02/02 01:33:13;;;;;;;30.23;7.28;;;;;;;6.38;100.00;100784.50;4999639;28;20045;-88
2022/02/02 01:35:39;;;;;;;35.33;7.90;;;;;;;6.40;100.00;100793.22;4999255;28;20045;-87
2022/02/02 01:38:05;;;;;;;31.27;7.20;;;;;;;6.40;100.00;100790.53;5009231;28;20052;-87
2022/02/02 01:40:40;;;;;;;31.10;7.90;;;;;;;6.42;100.00;100801.91;5010851;28;20398;-87
2022/02/02 01:43:17;;;;;;;34.55;6.93;;;;;;;6.41;100.00;100810.88;4979381;28;20099;-87
2022/02/02 01:45:54;;;;;;;33.85;6.57;;;;;;;6.39;100.00;100810.19;5025026;28;20100;-87
2022/02/02 01:56:10;;;;;;;37.40;8.77;;;;;;;6.38;100.00;100805.81;5011083;28;20037;-86
2022/02/02 02:01:11;;;;;;;39.40;8.00;;;;;;;6.42;100.00;100812.59;5025795;28;20490;-87
2022/02/02 02:03:37;;;;;;;30.42;6.68;;;;;;;6.41;100.00;100802.88;5024494;28;20059;-87
2022/02/02 02:06:06;;;;;;;34.35;7.97;;;;;;;6.44;100.00;100807.94;4996256;28;20041;-89
2022/02/02 02:08:32;;;;;;;42.38;8.88;;;;;;;6.46;100.00;100810.47;5001163;28;20107;-88
2022/02/02 02:10:58;;;;;;;34.88;8.30;;;;;;;6.44;100.00;100812.44;4992183;28;20045;-88
2022/02/02 02:16:09;;;;;;;32.80;7.72;;;;;;;6.47;100.00;100802.34;5031841;28;20047;-87
2022/02/02 02:18:35;;;;;;;38.90;8.48;;;;;;;6.49;100.00;100810.19;5016116;28;20053;-88
2022/02/02 02:21:01;;;;;;;33.83;7.07;;;;;;;6.52;100.00;100805.44;5013750;28;20041;-88
2022/02/02 02:23:26;;;;;;;30.67;6.95;;;;;;;6.50;100.00;100828.75;5000596;28;20084;-89
2022/02/02 02:25:52;;;;;;;27.80;5.47;;;;;;;6.49;99.42;100797.72;5008755;28;20076;-89
2022/02/02 02:28:35;;;;;;;26.35;4.97;;;;;;;6.49;98.54;100831.53;5007864;28;20501;-89
2022/02/02 02:31:10;;;;;;;20.77;4.82;;;;;;;6.47;97.33;100813.03;5020653;28;20045;-89
2022/02/02 02:58:40;;;;;;;35.50;7.07;;;;;;;6.15;100.00;100831.00;5028500;28;20046;-88
2022/02/02 03:01:20;;;;;;;38.00;8.23;;;;;;;6.18;100.00;100844.06;5005127;28;20032;-88
2022/02/02 03:31:15;;;;;;;41.88;7.43;;;;;;;6.30;100.00;100846.50;5005301;28;20064;-88
2022/02/02 03:58:26;;;;;;;32.50;6.60;;;;;;;6.22;100.00;100864.97;5031206;28;20414;-88
2022/02/02 04:06:22;;;;;;;21.55;4.55;;;;;;;5.94;100.00;100887.00;5017133;28;20567;-90
2022/02/02 04:08:48;;;;;;;17.30;4.82;;;;;;;5.89;100.00;100882.88;5015230;28;20045;-88
2022/02/02 04:11:47;;;;;;;17.10;3.60;;;;;;;5.86;100.00;100895.59;5013538;28;20041;-86
2022/02/02 04:39:13;;;;;;;23.98;6.30;;;;;;;5.64;100.00;100905.44;5004764;28;20088;-88
2022/02/02 05:11:36;;;;;;;17.40;4.65;;;;;;;5.65;100.00;100943.53;5007644;28;20025;-87
2022/02/02 05:17:16;;;;;;;18.00;4.75;;;;;;;5.65;100.00;100955.03;5017607;28;20103;-89
2022/02/02 05:50:18;;;;;;;20.88;4.32;;;;;;;5.66;100.00;100971.84;4999576;28;20099;-88
2022/02/02 05:52:44;;;;;;;21.80;4.07;;;;;;;5.65;100.00;100970.16;5000882;28;20042;-87
2022/02/02 05:55:16;;;;;;;20.47;3.80;;;;;;;5.64;100.00;100974.66;5024861;28;20769;-89
2022/02/02 05:57:45;;;;;;;17.15;3.72;;;;;;;5.66;100.00;100975.34;4985276;28;20288;-88
2022/02/02 06:00:11;;;;;;;20.08;4.53;;;;;;;5.67;100.00;100978.88;5001762;28;20038;-88
2022/02/02 06:02:38;;;;;;;20.40;4.03;;;;;;;5.65;100.00;100992.31;5012383;28;20103;-89
2022/02/02 06:05:08;;;;;;;15.00;3.63;;;;;;;5.69;100.00;100997.38;5028355;28;20128;-88
2022/02/02 06:07:35;;;;;;;19.48;4.60;;;;;;;5.71;100.00;100982.97;5028102;28;20132;-88
2022/02/02 06:10:03;;;;;;;20.02;3.53;;;;;;;5.66;100.00;101004.63;5007704;28;20041;-89
2022/02/02 06:12:30;;;;;;;16.95;4.30;;;;;;;5.64;100.00;100995.97;4992500;28;20053;-88
2022/02/02 06:14:58;;;;;;;17.98;4.50;;;;;;;5.65;100.00;101000.31;5025860;28;20755;-89
2022/02/02 06:17:29;;;;;;;24.90;4.35;;;;;;;5.66;100.00;101007.31;5013632;28;20046;-90
2022/02/02 06:19:56;;;;;;;18.85;3.90;;;;;;;5.66;100.00;101009.97;4980527;28;20117;-86
2022/02/02 06:22:28;;;;;;;21.90;4.10;;;;;;;5.66;100.00;101015.28;5023668;28;20046;-89
2022/02/02 06:25:13;;;;;;;22.85;4.18;;;;;;;5.69;100.00;101024.00;5007319;28;20085;-87
2022/02/02 06:27:43;;;;;;;16.13;4.30;;;;;;;5.68;100.00;101025.81;5005662;28;20445;-88
2022/02/02 06:30:10;;;;;;;21.98;4.15;;;;;;;5.69;100.00;101022.19;5010113;28;20049;-89
2022/02/02 06:32:43;;;;;;;16.30;4.18;;;;;;;5.73;100.00;101038.78;4994049;28;20486;-89
2022/02/02 06:35:09;;;;;;;17.08;3.97;;;;;;;5.73;100.00;101041.44;5006993;28;20033;-89
2022/02/02 06:37:38;;;;;;;20.38;4.68;;;;;;;5.73;100.00;101028.97;5012063;28;20045;-88
2022/02/02 06:40:04;;;;;;;21.80;4.15;;;;;;;5.73;100.00;101036.13;5021231;28;20034;-88
2022/02/02 06:42:30;;;;;;;16.85;4.40;;;;;;;5.73;100.00;101060.06;5003387;28;20038;-90
2022/02/02 06:44:59;;;;;;;22.65;5.07;;;;;;;5.69;100.00;101056.78;4995994;28;20041;-88
2022/02/02 06:47:27;;;;;;;18.27;3.90;;;;;;;5.67;100.00;101053.44;5027185;28;20056;-89
2022/02/02 06:50:04;;;;;;;16.08;4.70;;;;;;;5.65;100.00;101066.88;5016967;28;20129;-88
2022/02/02 06:53:04;;;;;;;19.20;4.03;;;;;;;5.64;100.00;101067.00;5010304;28;20046;-90
2022/02/02 06:55:39;;;;;;;21.60;4.47;;;;;;;5.63;100.00;101079.44;5032120;28;20045;-88
2022/02/02 06:58:22;;;;;;;19.05;4.28;;;;;;;5.63;100.00;101076.78;5015527;28;20057;-88
2022/02/02 07:01:11;;;;;;;27.60;5.50;;;;;;;5.64;100.00;101081.16;5007042;28;20049;-90
2022/02/02 07:04:03;;;;;;;20.27;5.15;;;;;;;5.65;100.00;101084.66;5027829;28;20049;-87
2022/02/02 07:06:50;;;;;;;24.02;5.70;;;;;;;5.66;100.00;101091.66;5024056;28;20072;-88
2022/02/02 07:12:02;;;;;;;23.77;4.82;;;;;;;5.71;100.00;101107.28;5032126;28;20046;-88
2022/02/02 07:14:53;;;;;;;21.42;5.47;;;;;;;5.75;100.00;101119.34;5031176;28;20131;-89
2022/02/02 07:17:42;;;;;;;19.98;4.53;;;;;;;5.76;100.00;101113.09;5016287;28;20064;-93
2022/02/02 07:20:16;;;;;;;;;;;;;;;5.76;100.00;101135.22;4973682;28;20130;-90
2022/02/02 07:26:05;;;;;;;23.35;5.22;;;;;;;5.71;100.00;101139.22;4947777;28;20141;-91
2022/02/02 07:33:32;;;;;;;28.67;5.35;;;;;;;5.75;100.00;101146.00;4937106;28;20193;-90
2022/02/02 07:36:16;;;;;;;23.15;5.10;;;;;;;5.74;100.00;101142.50;4935041;29;20131;-90
2022/02/02 07:38:55;;;;;;;22.77;5.05;;;;;;;5.71;100.00;101144.56;4923695;28;20627;-89
2022/02/02 07:41:48;;;;;;;24.42;5.57;;;;;;;5.72;100.00;101148.91;4904063;29;20222;-90
2022/02/02 07:44:26;;;;;;;28.12;6.10;;;;;;;5.69;100.00;101151.81;4367677;29;5939733;-91
2022/02/02 07:47:12;;;;;;;25.83;5.80;;;;;;;5.68;100.00;101153.63;4629333;29;4522944;-89
2022/02/02 07:49:47;;;;;;;23.90;4.80;;;;;;;5.68;100.00;101158.13;4773279;29;3421821;-91
2022/02/02 07:52:25;;;;;;;25.77;5.57;;;;;;;5.64;100.00;101162.84;4720590;29;3987212;-90
